Terminal Aerodrome Forecast
Issued by NWS

Home | Current Version | Previous Version | Graphics & Text | Print | Product List | Glossary Off
Versions: 1 2 3 4 5 6 7 8 9 10 11 12 13 14 15 16 17 18 19 20 21 22 23 24 25 26 27 28

000
FTUS43 KDDC 162322
TAFHYS
TAF
KHYS 162322Z 1700/1724 01016G22KT P6SM SKC
     FM170600 03008KT P6SM SCT200
     FM171000 04007KT P6SM BKN030
     FM172000 11007KT P6SM BKN090=

USA.gov is the U.S. government's official web portal to all federal, state and local government web resources and services.